Time;durP1;ratioP1;P1;durP2;ratioP2;P2;SDS_P1;SDS_P2;PMS_P1;PMS_P2;Temp;Humidity;BMP_temperature;BMP_pressure;BME280_temperature;BME280_humidity;BME280_pressure;Samples;Min_cycle;Max_cycle;Signal;HPM_P1;HPM_P2
2022/11/19 00:01:55;;;;;;;;;;;16.20;93.60;;;;;;5055793;28;19970;-92
2022/11/19 00:04:21;;;;;;;;;;;16.10;93.60;;;;;;5055332;28;19908;-93
2022/11/19 00:06:47;;;;;;;;;;;16.10;93.60;;;;;;5057058;28;20066;-93
2022/11/19 00:09:15;;;;;;;;;;;16.10;93.60;;;;;;5056830;28;19915;-93
2022/11/19 00:14:25;;;;;;;;;;;16.00;93.50;;;;;;5074985;28;19974;-93
2022/11/19 00:16:51;;;;;;;;;;;16.00;93.40;;;;;;5057294;28;19916;-93
2022/11/19 00:19:16;;;;;;;;;;;16.00;93.20;;;;;;5056860;28;19936;-93
2022/11/19 00:21:42;;;;;;;;;;;15.90;93.10;;;;;;5057551;28;20533;-92
2022/11/19 00:24:11;;;;;;;;;;;15.90;93.10;;;;;;5057826;28;20366;-93
2022/11/19 00:26:40;;;;;;;;;;;15.80;93.00;;;;;;5056602;28;20236;-92
2022/11/19 00:29:08;;;;;;;;;;;15.80;93.00;;;;;;5058774;28;20158;-93
2022/11/19 00:31:37;;;;;;;;;;;15.80;92.90;;;;;;5058795;28;19916;-93
2022/11/19 00:34:05;;;;;;;;;;;15.80;92.80;;;;;;5058759;28;19943;-93
2022/11/19 00:36:34;;;;;;;;;;;15.80;92.70;;;;;;5058192;28;19908;-93
2022/11/19 00:39:00;;;;;;;;;;;15.70;92.60;;;;;;5058749;28;19956;-92
2022/11/19 00:41:28;;;;;;;;;;;15.70;92.60;;;;;;5057018;28;20029;-93
2022/11/19 00:43:57;;;;;;;;;;;15.60;92.60;;;;;;5057332;28;19908;-93
2022/11/19 00:46:23;;;;;;;;;;;15.60;92.60;;;;;;5058526;28;20121;-93
2022/11/19 00:48:49;;;;;;;;;;;15.60;92.60;;;;;;5057609;28;20202;-92
2022/11/19 00:51:18;;;;;;;;;;;15.60;92.60;;;;;;5058539;28;19908;-92
2022/11/19 00:53:46;;;;;;;;;;;15.50;92.70;;;;;;5055453;28;19924;-92
2022/11/19 00:56:17;;;;;;;;;;;15.50;92.60;;;;;;5055041;28;19915;-92
2022/11/19 00:58:46;;;;;;;;;;;15.50;92.90;;;;;;5054715;28;19912;-93
2022/11/19 01:01:12;;;;;;;;;;;15.50;92.60;;;;;;5054733;28;19916;-92
2022/11/19 01:03:38;;;;;;;;;;;15.50;92.60;;;;;;5053393;28;19969;-92
2022/11/19 01:06:08;;;;;;;;;;;15.50;92.60;;;;;;5054872;28;20156;-93
2022/11/19 01:08:34;;;;;;;;;;;15.50;92.70;;;;;;5054638;28;20273;-93
2022/11/19 01:11:04;;;;;;;;;;;15.50;92.80;;;;;;5056141;28;19908;-92
2022/11/19 01:13:33;;;;;;;;;;;15.50;92.80;;;;;;5057005;28;19916;-93
2022/11/19 01:15:59;;;;;;;;;;;15.50;92.70;;;;;;5054869;28;19912;-92
2022/11/19 01:18:25;;;;;;;;;;;15.50;92.60;;;;;;5054586;28;19912;-92
2022/11/19 01:20:52;;;;;;;;;;;15.50;92.40;;;;;;5054266;28;19920;-92
2022/11/19 01:23:20;;;;;;;;;;;15.40;92.30;;;;;;5053486;28;19908;-93
2022/11/19 01:25:46;;;;;;;;;;;15.40;92.20;;;;;;5054073;28;19908;-92
2022/11/19 01:28:12;;;;;;;;;;;15.40;92.00;;;;;;5054558;28;19919;-91
2022/11/19 01:30:41;;;;;;;;;;;15.40;91.80;;;;;;5055444;28;19970;-92
2022/11/19 01:33:10;;;;;;;;;;;15.40;91.80;;;;;;5055914;28;19998;-92
2022/11/19 01:35:35;;;;;;;;;;;15.40;91.80;;;;;;5056425;28;19917;-92
2022/11/19 01:38:02;;;;;;;;;;;15.40;91.70;;;;;;5054663;28;20186;-92
2022/11/19 01:40:28;;;;;;;;;;;15.40;91.60;;;;;;5055720;28;19986;-93
2022/11/19 01:42:56;;;;;;;;;;;15.40;91.60;;;;;;5057035;28;19920;-92
2022/11/19 01:45:39;;;;;;;;;;;15.40;91.60;;;;;;5056430;28;19913;-92
2022/11/19 01:48:23;;;;;;;;;;;15.40;91.60;;;;;;5057929;28;19926;-92
2022/11/19 01:50:55;;;;;;;;;;;15.30;91.60;;;;;;5057843;28;20285;-92
2022/11/19 01:53:21;;;;;;;;;;;15.30;91.50;;;;;;5058849;28;19908;-92
2022/11/19 01:55:51;;;;;;;;;;;15.30;91.50;;;;;;5057673;28;19909;-92
2022/11/19 01:58:18;;;;;;;;;;;15.30;91.40;;;;;;5056473;28;19916;-92
2022/11/19 02:00:44;;;;;;;;;;;15.30;91.30;;;;;;5056579;28;19993;-92
2022/11/19 02:03:14;;;;;;;;;;;15.30;91.10;;;;;;5057935;28;19908;-92
2022/11/19 02:05:40;;;;;;;;;;;15.30;91.00;;;;;;5057507;28;19919;-92
2022/11/19 02:08:07;;;;;;;;;;;15.30;90.90;;;;;;5056315;28;19912;-92
2022/11/19 02:10:42;;;;;;;;;;;15.30;90.90;;;;;;5058007;28;20058;-93
2022/11/19 02:13:28;;;;;;;;;;;15.20;90.70;;;;;;5058699;28;19909;-93
2022/11/19 02:16:01;;;;;;;;;;;15.30;90.80;;;;;;5051179;28;19908;-92
2022/11/19 02:18:33;;;;;;;;;;;15.20;90.60;;;;;;5057646;28;19909;-93
2022/11/19 02:21:25;;;;;;;;;;;15.20;90.60;;;;;;5057981;28;19995;-92
2022/11/19 02:24:09;;;;;;;;;;;15.20;90.40;;;;;;5043637;28;19919;-91
2022/11/19 02:26:41;;;;;;;;;;;15.20;90.30;;;;;;5062277;28;19930;-92
2022/11/19 02:29:11;;;;;;;;;;;15.20;90.00;;;;;;5061671;28;19909;-92
2022/11/19 02:31:39;;;;;;;;;;;15.20;89.90;;;;;;5061864;28;20374;-92
2022/11/19 02:34:11;;;;;;;;;;;15.20;89.60;;;;;;5049005;28;20163;-90
2022/11/19 02:36:40;;;;;;;;;;;15.20;89.30;;;;;;5062393;28;20045;-92
2022/11/19 02:39:17;;;;;;;;;;;15.20;89.10;;;;;;5061596;28;20027;-92
2022/11/19 02:41:48;;;;;;;;;;;15.20;88.80;;;;;;5062495;28;20262;-92
2022/11/19 02:47:13;;;;;;;;;;;15.20;88.50;;;;;;5079534;28;19930;-92
2022/11/19 02:49:40;;;;;;;;;;;15.20;88.30;;;;;;5061735;28;19912;-92
2022/11/19 02:52:12;;;;;;;;;;;15.20;88.00;;;;;;5062216;28;19908;-92
2022/11/19 02:54:38;;;;;;;;;;;15.10;87.70;;;;;;5062008;28;19908;-92
2022/11/19 02:57:08;;;;;;;;;;;15.20;87.50;;;;;;5061611;28;19935;-92
2022/11/19 03:05:14;;;;;;;;;;;15.10;87.20;;;;;;5079768;28;20372;-92
2022/11/19 03:07:43;;;;;;;;;;;15.10;86.90;;;;;;5061117;28;19935;-92
2022/11/19 03:10:12;;;;;;;;;;;15.10;86.70;;;;;;5060788;28;19944;-92
2022/11/19 03:12:55;;;;;;;;;;;15.10;86.60;;;;;;5062300;28;19908;-91
2022/11/19 03:18:38;;;;;;;;;;;15.10;86.40;;;;;;5078177;28;19939;-92
2022/11/19 03:21:12;;;;;;;;;;;15.10;86.20;;;;;;5061476;28;19909;-92
2022/11/19 03:23:43;;;;;;;;;;;15.10;86.20;;;;;;5061373;28;19915;-91
2022/11/19 03:26:24;;;;;;;;;;;15.10;86.00;;;;;;5061107;28;19915;-92
2022/11/19 03:28:54;;;;;;;;;;;15.10;85.80;;;;;;5060113;28;20353;-92
2022/11/19 03:31:22;;;;;;;;;;;15.10;85.70;;;;;;5060264;28;19974;-92
2022/11/19 03:33:50;;;;;;;;;;;15.00;85.50;;;;;;5060957;28;19928;-92
2022/11/19 03:36:18;;;;;;;;;;;15.00;85.30;;;;;;5060425;28;19955;-91
2022/11/19 03:38:48;;;;;;;;;;;15.00;85.10;;;;;;5060602;28;19924;-92
2022/11/19 03:41:16;;;;;;;;;;;15.00;84.90;;;;;;5061329;28;20188;-91
2022/11/19 03:43:50;;;;;;;;;;;15.00;84.80;;;;;;5061120;28;19971;-92
2022/11/19 03:46:17;;;;;;;;;;;15.00;84.60;;;;;;5060874;28;20107;-92
2022/11/19 03:48:49;;;;;;;;;;;15.00;84.50;;;;;;5060976;28;19909;-91
2022/11/19 03:51:19;;;;;;;;;;;14.90;84.20;;;;;;5061063;28;19915;-91
2022/11/19 03:53:44;;;;;;;;;;;15.00;84.30;;;;;;5060994;28;19944;-91
2022/11/19 03:56:12;;;;;;;;;;;14.90;84.00;;;;;;5061211;28;19967;-91
2022/11/19 03:58:38;;;;;;;;;;;14.90;83.80;;;;;;5060325;28;19913;-92
2022/11/19 04:01:04;;;;;;;;;;;14.90;83.60;;;;;;5077888;28;19995;-92
2022/11/19 04:03:29;;;;;;;;;;;14.90;83.60;;;;;;5061140;28;19944;-92
2022/11/19 04:05:55;;;;;;;;;;;14.90;83.50;;;;;;5060977;28;19916;-92
2022/11/19 04:08:24;;;;;;;;;;;14.90;83.40;;;;;;5061368;28;20131;-92
2022/11/19 04:10:52;;;;;;;;;;;14.80;83.10;;;;;;5060521;28;19986;-91
2022/11/19 04:13:21;;;;;;;;;;;14.80;82.90;;;;;;5059833;28;19934;-91
2022/11/19 04:15:47;;;;;;;;;;;14.80;82.70;;;;;;5060736;28;19908;-91
2022/11/19 04:18:13;;;;;;;;;;;14.80;82.40;;;;;;5060555;28;19991;-91
2022/11/19 04:20:38;;;;;;;;;;;14.80;82.20;;;;;;5058397;28;20081;-91
2022/11/19 04:23:04;;;;;;;;;;;14.80;82.00;;;;;;5059290;28;19955;-92
2022/11/19 04:25:30;;;;;;;;;;;14.80;81.90;;;;;;5059103;28;20274;-91
2022/11/19 04:27:58;;;;;;;;;;;14.80;81.70;;;;;;5059675;28;19909;-92
2022/11/19 04:30:24;;;;;;;;;;;14.80;81.70;;;;;;5059107;28;19951;-91
2022/11/19 04:32:49;;;;;;;;;;;14.80;81.70;;;;;;5058445;28;19947;-91
2022/11/19 04:35:20;;;;;;;;;;;14.80;81.70;;;;;;5058515;28;20315;-92
2022/11/19 04:37:49;;;;;;;;;;;14.70;81.60;;;;;;5058448;28;20003;-91
2022/11/19 04:40:14;;;;;;;;;;;14.70;81.50;;;;;;5059067;28;19927;-92
2022/11/19 04:42:40;;;;;;;;;;;14.70;81.60;;;;;;5058827;28;19908;-91
2022/11/19 04:45:06;;;;;;;;;;;14.70;81.90;;;;;;5058570;28;19920;-91
2022/11/19 04:47:35;;;;;;;;;;;14.70;81.90;;;;;;5058110;28;19995;-91
2022/11/19 04:50:00;;;;;;;;;;;14.60;81.70;;;;;;5059848;28;19924;-91
2022/11/19 04:52:26;;;;;;;;;;;14.60;81.80;;;;;;5060232;28;19908;-92
2022/11/19 04:54:56;;;;;;;;;;;14.60;81.80;;;;;;5057992;28;20376;-91
2022/11/19 04:57:22;;;;;;;;;;;14.50;81.60;;;;;;5059813;28;19908;-92
2022/11/19 04:59:48;;;;;;;;;;;14.50;81.70;;;;;;5059261;28;19912;-91
2022/11/19 05:02:13;;;;;;;;;;;14.50;81.50;;;;;;5058728;28;19908;-91
2022/11/19 05:04:40;;;;;;;;;;;14.50;81.40;;;;;;5057398;28;19982;-91
2022/11/19 05:07:08;;;;;;;;;;;14.40;81.40;;;;;;5057442;28;19956;-91
2022/11/19 05:09:37;;;;;;;;;;;14.40;81.40;;;;;;5057466;28;19908;-91
2022/11/19 05:12:03;;;;;;;;;;;14.40;81.20;;;;;;5074629;28;19908;-91
2022/11/19 05:14:28;;;;;;;;;;;14.30;81.30;;;;;;5057256;28;19916;-91
2022/11/19 05:16:54;;;;;;;;;;;14.30;81.40;;;;;;5055668;28;20238;-91
2022/11/19 05:19:19;;;;;;;;;;;14.20;81.40;;;;;;5056658;28;19927;-91
2022/11/19 05:21:45;;;;;;;;;;;14.20;81.50;;;;;;5057419;28;19908;-90
2022/11/19 05:24:11;;;;;;;;;;;14.20;81.70;;;;;;5057850;28;19909;-91
2022/11/19 05:26:39;;;;;;;;;;;14.10;81.70;;;;;;5058979;28;19919;-91
2022/11/19 05:29:08;;;;;;;;;;;14.10;81.80;;;;;;5058298;28;20296;-91
2022/11/19 05:31:37;;;;;;;;;;;14.00;81.80;;;;;;5057794;28;19974;-91
2022/11/19 05:34:05;;;;;;;;;;;14.00;82.40;;;;;;5056032;28;20194;-91
2022/11/19 05:36:31;;;;;;;;;;;14.00;82.50;;;;;;5056259;28;19909;-91
2022/11/19 05:38:59;;;;;;;;;;;14.00;82.50;;;;;;5054045;28;19928;-91
2022/11/19 05:41:28;;;;;;;;;;;14.70;78.50;;;;;;5055549;28;19908;-91
2022/11/19 05:43:56;;;;;;;;;;;15.50;73.10;;;;;;5053796;28;20258;-91
2022/11/19 05:46:22;;;;;;;;;;;15.80;69.90;;;;;;5054045;28;20298;-91
2022/11/19 05:48:47;;;;;;;;;;;16.00;67.80;;;;;;5053466;28;19909;-91
2022/11/19 05:51:16;;;;;;;;;;;16.20;66.60;;;;;;5053378;28;19908;-91
2022/11/19 05:53:45;;;;;;;;;;;16.30;65.20;;;;;;5054691;28;19908;-90
2022/11/19 05:56:10;;;;;;;;;;;16.60;63.90;;;;;;5055313;28;19915;-91
2022/11/19 05:58:36;;;;;;;;;;;16.80;62.50;;;;;;5055040;28;19908;-91
2022/11/19 06:01:02;;;;;;;;;;;17.00;60.90;;;;;;5054761;28;20003;-91
2022/11/19 06:03:28;;;;;;;;;;;17.20;60.00;;;;;;5055522;28;20132;-91
2022/11/19 06:05:56;;;;;;;;;;;17.30;59.50;;;;;;5056148;28;19919;-92
2022/11/19 06:08:25;;;;;;;;;;;17.40;59.00;;;;;;5057728;28;19909;-92
2022/11/19 06:10:54;;;;;;;;;;;17.70;58.40;;;;;;5057027;28;19999;-92
2022/11/19 06:13:19;;;;;;;;;;;17.80;57.80;;;;;;5055746;28;19919;-92
2022/11/19 06:15:45;;;;;;;;;;;17.90;57.50;;;;;;5056786;28;19909;-92
2022/11/19 06:18:11;;;;;;;;;;;18.00;57.50;;;;;;5055613;28;20265;-92
2022/11/19 06:20:40;;;;;;;;;;;18.00;57.40;;;;;;5057848;28;19913;-92
2022/11/19 06:23:08;;;;;;;;;;;18.20;57.10;;;;;;5057808;28;19987;-92
2022/11/19 06:25:37;;;;;;;;;;;18.30;56.60;;;;;;5057761;28;19909;-92
2022/11/19 06:28:06;;;;;;;;;;;18.30;56.40;;;;;;5057797;28;19913;-92
2022/11/19 06:30:32;;;;;;;;;;;18.30;56.30;;;;;;5056707;28;19909;-92
2022/11/19 06:33:00;;;;;;;;;;;18.30;56.10;;;;;;5057129;28;19919;-91
2022/11/19 06:35:29;;;;;;;;;;;18.30;56.10;;;;;;5057749;28;19919;-92
2022/11/19 06:37:58;;;;;;;;;;;18.20;55.90;;;;;;5056144;28;20270;-92
2022/11/19 06:40:23;;;;;;;;;;;18.20;55.80;;;;;;5056256;28;19923;-91
2022/11/19 06:42:49;;;;;;;;;;;18.20;55.80;;;;;;5056164;28;19920;-92
2022/11/19 06:45:14;;;;;;;;;;;18.00;55.80;;;;;;5057259;28;19908;-92
2022/11/19 06:47:43;;;;;;;;;;;18.00;55.90;;;;;;5055971;28;19913;-91
2022/11/19 06:50:10;;;;;;;;;;;17.80;56.10;;;;;;5055943;28;19952;-92
2022/11/19 06:52:38;;;;;;;;;;;17.70;56.20;;;;;;5055394;28;19908;-92
2022/11/19 06:55:07;;;;;;;;;;;17.50;56.70;;;;;;5056814;28;19944;-92
2022/11/19 06:57:35;;;;;;;;;;;17.40;56.50;;;;;;5057137;28;19908;-92
2022/11/19 07:00:00;;;;;;;;;;;17.30;56.70;;;;;;5056619;28;20262;-92
2022/11/19 07:02:26;;;;;;;;;;;17.20;57.10;;;;;;5057126;28;19987;-93
2022/11/19 07:04:52;;;;;;;;;;;17.00;57.30;;;;;;5054944;28;19923;-92
2022/11/19 07:07:41;;;;;;;;;;;16.90;57.60;;;;;;5052839;28;20213;-92
2022/11/19 07:10:17;;;;;;;;;;;16.70;57.80;;;;;;5061302;28;19908;-92
2022/11/19 07:12:45;;;;;;;;;;;16.60;58.20;;;;;;5058713;28;20296;-93
2022/11/19 07:15:14;;;;;;;;;;;16.60;58.20;;;;;;5056852;28;19908;-92
2022/11/19 07:17:41;;;;;;;;;;;16.60;58.10;;;;;;5057052;28;19920;-92
2022/11/19 07:20:17;;;;;;;;;;;16.60;57.80;;;;;;5048812;28;20274;-93
2022/11/19 07:22:42;;;;;;;;;;;16.70;57.70;;;;;;5055832;28;20361;-92
2022/11/19 07:25:11;;;;;;;;;;;16.90;57.20;;;;;;5057593;28;19967;-92
2022/11/19 07:27:37;;;;;;;;;;;17.10;56.60;;;;;;5057751;28;20069;-92
2022/11/19 07:30:09;;;;;;;;;;;17.40;56.00;;;;;;5059889;28;19919;-92
2022/11/19 07:32:38;;;;;;;;;;;17.60;55.40;;;;;;5058755;28;19908;-92
2022/11/19 07:35:08;;;;;;;;;;;17.70;55.10;;;;;;5057699;28;20052;-93
2022/11/19 07:37:37;;;;;;;;;;;17.80;55.00;;;;;;5057921;28;20031;-92
2022/11/19 07:40:03;;;;;;;;;;;17.80;54.80;;;;;;5059246;28;20019;-92
2022/11/19 07:45:14;;;;;;;;;;;18.00;54.50;;;;;;5073415;28;20036;-92
2022/11/19 07:47:40;;;;;;;;;;;18.00;54.40;;;;;;5058051;28;19909;-93
2022/11/19 07:50:09;;;;;;;;;;;18.00;54.30;;;;;;5027876;28;19908;-92
2022/11/19 07:52:35;;;;;;;;;;;18.10;54.20;;;;;;5057848;28;19919;-92
2022/11/19 07:55:01;;;;;;;;;;;18.10;54.20;;;;;;5058146;28;19908;-92
2022/11/19 07:57:26;;;;;;;;;;;18.10;54.10;;;;;;5075120;28;19919;-92
2022/11/19 07:59:55;;;;;;;;;;;18.00;54.10;;;;;;5029564;28;19912;-92
2022/11/19 08:02:24;;;;;;;;;;;18.00;54.10;;;;;;5057950;28;20155;-92
2022/11/19 08:04:52;;;;;;;;;;;18.00;54.20;;;;;;5050155;28;19962;-92
2022/11/19 08:07:19;;;;;;;;;;;17.90;54.20;;;;;;5054398;28;19973;-93
2022/11/19 08:09:47;;;;;;;;;;;17.80;54.20;;;;;;5030647;28;19943;-92
2022/11/19 08:12:16;;;;;;;;;;;17.70;54.20;;;;;;5054009;28;19946;-91
2022/11/19 08:14:44;;;;;;;;;;;17.70;54.20;;;;;;5048577;28;19940;-92
2022/11/19 08:19:57;;;;;;;;;;;17.50;54.40;;;;;;5048624;28;20067;-92
2022/11/19 08:22:23;;;;;;;;;;;17.40;54.70;;;;;;5052110;28;19913;-92
2022/11/19 08:24:48;;;;;;;;;;;17.30;54.80;;;;;;5043310;28;19908;-92
2022/11/19 08:27:17;;;;;;;;;;;17.30;54.90;;;;;;5056737;28;20284;-92
2022/11/19 08:29:46;;;;;;;;;;;17.20;55.10;;;;;;5034344;28;19909;-92
2022/11/19 08:32:14;;;;;;;;;;;17.20;55.30;;;;;;5046542;28;20059;-92
2022/11/19 08:34:43;;;;;;;;;;;17.10;55.30;;;;;;5059724;28;19923;-90
2022/11/19 08:37:12;;;;;;;;;;;17.10;55.30;;;;;;5051281;28;19916;-90
2022/11/19 08:39:39;;;;;;;;;;;17.20;55.10;;;;;;5019954;28;20023;-91
2022/11/19 08:44:49;;;;;;;;;;;17.20;54.80;;;;;;5066778;28;20185;-91
2022/11/19 08:47:16;;;;;;;;;;;17.20;54.80;;;;;;5053198;28;20301;-91
2022/11/19 08:49:42;;;;;;;;;;;17.30;54.80;;;;;;5046091;28;20021;-92
2022/11/19 08:52:12;;;;;;;;;;;17.40;54.50;;;;;;5042084;28;20006;-92
2022/11/19 08:54:37;;;;;;;;;;;17.50;54.20;;;;;;5046689;28;19954;-92
2022/11/19 08:57:04;;;;;;;;;;;17.60;53.90;;;;;;5051833;28;19963;-92
2022/11/19 08:59:33;;;;;;;;;;;17.70;53.80;;;;;;5049909;28;19913;-92
2022/11/19 09:02:01;;;;;;;;;;;17.80;53.70;;;;;;5049552;28;20415;-91
2022/11/19 09:04:30;;;;;;;;;;;18.00;53.60;;;;;;5067722;28;19916;-92
2022/11/19 09:06:56;;;;;;;;;;;18.00;53.60;;;;;;5050357;28;20004;-92
2022/11/19 09:09:24;;;;;;;;;;;18.10;53.50;;;;;;5065392;28;20178;-92
2022/11/19 09:11:50;;;;;;;;;;;18.10;53.40;;;;;;5058209;28;20195;-92
2022/11/19 09:14:15;;;;;;;;;;;18.20;53.30;;;;;;5043291;28;19958;-92
2022/11/19 09:16:41;;;;;;;;;;;18.20;53.30;;;;;;5035771;28;19919;-92
2022/11/19 09:19:07;;;;;;;;;;;18.20;53.90;;;;;;5047022;28;19913;-91
2022/11/19 09:21:35;;;;;;;;;;;18.20;53.50;;;;;;5046371;28;19914;-91
2022/11/19 09:24:04;;;;;;;;;;;18.20;53.60;;;;;;5053218;28;19909;-92
2022/11/19 09:26:32;;;;;;;;;;;18.20;53.70;;;;;;5053864;28;20244;-91
2022/11/19 09:29:01;;;;;;;;;;;18.10;53.90;;;;;;5054522;28;20116;-91
2022/11/19 09:31:27;;;;;;;;;;;18.10;54.10;;;;;;5034978;28;19908;-92
2022/11/19 09:33:52;;;;;;;;;;;18.00;54.30;;;;;;5070000;28;20278;-91
2022/11/19 09:36:18;;;;;;;;;;;17.80;54.50;;;;;;5039669;28;19919;-91
2022/11/19 09:38:47;;;;;;;;;;;17.80;54.70;;;;;;5053360;28;19916;-91
2022/11/19 09:41:26;;;;;;;;;;;17.60;55.00;;;;;;5032866;28;19908;-92
2022/11/19 09:44:01;;;;;;;;;;;17.50;55.50;;;;;;5050924;28;19923;-91
2022/11/19 09:46:47;;;;;;;;;;;17.40;55.90;;;;;;5024797;28;20269;-91
2022/11/19 09:49:18;;;;;;;;;;;17.30;56.20;;;;;;5048983;28;19908;-91
2022/11/19 09:51:52;;;;;;;;;;;17.20;56.30;;;;;;5014940;28;20302;-92
2022/11/19 09:54:18;;;;;;;;;;;17.10;56.50;;;;;;5049957;28;19908;-91
2022/11/19 09:56:45;;;;;;;;;;;17.10;56.90;;;;;;5026235;28;19908;-90
2022/11/19 09:59:27;;;;;;;;;;;17.00;57.30;;;;;;5043296;28;19927;-92
2022/11/19 10:01:53;;;;;;;;;;;17.00;57.60;;;;;;5044350;28;19920;-92
2022/11/19 10:04:24;;;;;;;;;;;17.00;57.70;;;;;;5039277;28;19912;-90
2022/11/19 10:06:58;;;;;;;;;;;16.90;57.60;;;;;;5039055;28;19912;-92
2022/11/19 10:09:27;;;;;;;;;;;16.90;57.50;;;;;;5034895;28;20011;-92
2022/11/19 10:12:10;;;;;;;;;;;16.90;57.50;;;;;;5043853;28;19995;-90
2022/11/19 10:14:55;;;;;;;;;;;17.00;57.20;;;;;;5011261;28;20014;-91
2022/11/19 10:17:23;;;;;;;;;;;17.10;56.90;;;;;;5069654;28;20555;-91
2022/11/19 10:19:53;;;;;;;;;;;17.10;56.80;;;;;;5030117;28;19955;-91
2022/11/19 10:22:24;;;;;;;;;;;17.20;56.70;;;;;;5052801;28;19909;-91
2022/11/19 10:24:58;;;;;;;;;;;17.20;56.60;;;;;;5039202;28;19920;-91
2022/11/19 10:27:30;;;;;;;;;;;17.30;56.20;;;;;;5051104;28;19989;-91
2022/11/19 10:30:00;;;;;;;;;;;17.50;56.00;;;;;;5047362;28;19909;-91
2022/11/19 10:32:31;;;;;;;;;;;17.60;55.80;;;;;;5051571;28;19908;-91
2022/11/19 10:34:59;;;;;;;;;;;17.70;55.60;;;;;;5052705;28;19916;-91
2022/11/19 10:37:28;;;;;;;;;;;17.70;55.30;;;;;;5068423;28;19908;-91
2022/11/19 10:40:03;;;;;;;;;;;17.80;55.00;;;;;;5049367;28;20187;-91
2022/11/19 10:42:40;;;;;;;;;;;17.90;54.80;;;;;;5049994;28;20212;-90
2022/11/19 10:45:20;;;;;;;;;;;18.00;54.60;;;;;;5070529;28;19909;-91
2022/11/19 10:48:08;;;;;;;;;;;18.10;54.40;;;;;;5054364;28;19980;-91
2022/11/19 10:50:36;;;;;;;;;;;18.10;54.10;;;;;;5054750;28;19935;-91
2022/11/19 10:53:10;;;;;;;;;;;18.10;53.90;;;;;;5053647;28;20360;-92
2022/11/19 10:55:38;;;;;;;;;;;18.20;53.70;;;;;;5055606;28;20012;-91
2022/11/19 10:58:13;;;;;;;;;;;18.20;53.60;;;;;;5055278;28;19917;-91
2022/11/19 11:00:39;;;;;;;;;;;18.20;53.60;;;;;;5052403;28;19913;-91
2022/11/19 11:03:09;;;;;;;;;;;18.20;53.60;;;;;;5054339;28;20011;-91
2022/11/19 11:05:54;;;;;;;;;;;18.20;53.60;;;;;;5054838;28;19909;-91
2022/11/19 11:08:23;;;;;;;;;;;18.30;53.50;;;;;;5057575;28;19908;-91
2022/11/19 11:10:51;;;;;;;;;;;18.30;53.40;;;;;;5057367;28;19909;-91
2022/11/19 11:16:06;;;;;;;;;;;18.40;53.20;;;;;;5071975;28;20309;-90
2022/11/19 11:18:32;;;;;;;;;;;18.30;53.10;;;;;;5069777;28;20193;-91
2022/11/19 11:20:58;;;;;;;;;;;18.30;53.00;;;;;;5053942;28;19924;-90
2022/11/19 11:23:30;;;;;;;;;;;18.30;53.00;;;;;;5070477;28;19908;-91
2022/11/19 11:26:10;;;;;;;;;;;18.20;52.90;;;;;;5056172;28;20006;-91
2022/11/19 11:28:51;;;;;;;;;;;18.20;52.90;;;;;;5058252;28;19950;-91
2022/11/19 11:31:26;;;;;;;;;;;18.10;52.90;;;;;;5056290;28;20011;-91
2022/11/19 11:33:56;;;;;;;;;;;18.00;53.00;;;;;;5056878;28;20379;-90
2022/11/19 11:36:24;;;;;;;;;;;17.80;53.10;;;;;;5055908;28;19999;-91
2022/11/19 11:38:51;;;;;;;;;;;17.60;53.40;;;;;;5055291;28;19974;-91
2022/11/19 11:41:43;;;;;;;;;;;17.50;53.80;;;;;;5052968;28;19918;-91
2022/11/19 11:44:16;;;;;;;;;;;17.30;54.10;;;;;;5053175;28;20144;-92
2022/11/19 11:46:47;;;;;;;;;;;17.20;54.40;;;;;;5055387;28;19909;-92
2022/11/19 11:49:32;;;;;;;;;;;17.30;54.50;;;;;;5056008;28;19908;-92
2022/11/19 11:52:16;;;;;;;;;;;17.40;54.20;;;;;;5055242;28;19912;-92
2022/11/19 11:54:55;;;;;;;;;;;17.60;53.90;;;;;;5050251;28;19912;-92
2022/11/19 11:57:25;;;;;;;;;;;17.80;53.60;;;;;;5049303;28;20123;-92
2022/11/19 11:59:51;;;;;;;;;;;18.10;53.20;;;;;;5049434;28;19932;-93
2022/11/19 12:02:29;;;;;;;;;;;18.20;53.10;;;;;;5054063;28;19975;-92
2022/11/19 12:04:55;;;;;;;;;;;18.20;52.90;;;;;;5043611;28;20533;-92
2022/11/19 12:07:24;;;;;;;;;;;18.30;52.70;;;;;;5051542;28;19944;-92
2022/11/19 12:09:49;;;;;;;;;;;18.30;52.50;;;;;;5029622;28;19915;-92
2022/11/19 12:12:21;;;;;;;;;;;18.30;52.50;;;;;;5052875;28;20040;-92
2022/11/19 12:15:06;;;;;;;;;;;18.40;52.40;;;;;;5043046;28;19935;-92
2022/11/19 12:17:50;;;;;;;;;;;18.40;52.20;;;;;;5052051;28;19940;-92
2022/11/19 12:20:37;;;;;;;;;;;18.40;52.10;;;;;;5041887;28;19935;-92
2022/11/19 12:23:06;;;;;;;;;;;18.40;52.00;;;;;;5047133;28;19908;-91
2022/11/19 12:25:39;;;;;;;;;;;18.40;52.00;;;;;;5062204;28;20035;-92
2022/11/19 12:28:13;;;;;;;;;;;18.40;52.10;;;;;;5052692;28;19908;-92
2022/11/19 12:30:58;;;;;;;;;;;18.40;52.00;;;;;;5053282;28;19909;-92
2022/11/19 12:33:23;;;;;;;;;;;18.40;52.00;;;;;;5053144;28;19966;-91
2022/11/19 12:36:07;;;;;;;;;;;18.40;52.10;;;;;;5067575;28;20008;-90
2022/11/19 12:38:42;;;;;;;;;;;18.40;52.10;;;;;;5048813;28;19913;-91
2022/11/19 12:41:23;;;;;;;;;;;18.40;52.10;;;;;;5049120;28;19919;-92
2022/11/19 12:43:53;;;;;;;;;;;18.30;52.00;;;;;;5048791;28;20011;-90
2022/11/19 12:46:37;;;;;;;;;;;18.30;52.10;;;;;;5049154;28;19908;-91
2022/11/19 12:49:26;;;;;;;;;;;18.20;52.10;;;;;;5068300;28;19916;-91
2022/11/19 12:52:11;;;;;;;;;;;18.10;52.00;;;;;;5031219;28;19932;-90
2022/11/19 12:55:03;;;;;;;;;;;18.00;51.90;;;;;;5048738;28;19919;-91
2022/11/19 12:57:31;;;;;;;;;;;17.90;51.90;;;;;;5023114;28;19908;-91
2022/11/19 13:00:14;;;;;;;;;;;17.90;52.00;;;;;;5052275;28;20273;-91
2022/11/19 13:02:55;;;;;;;;;;;17.80;52.10;;;;;;5048396;28;19918;-91
2022/11/19 13:05:32;;;;;;;;;;;17.70;52.10;;;;;;5052459;28;20344;-91
2022/11/19 13:08:04;;;;;;;;;;;17.70;52.10;;;;;;5050706;28;19909;-91
2022/11/19 13:10:34;;;;;;;;;;;17.60;52.20;;;;;;5052617;28;20087;-91
2022/11/19 13:13:03;;;;;;;;;;;17.60;52.20;;;;;;5053545;28;19909;-91
2022/11/19 13:15:42;;;;;;;;;;;17.60;52.20;;;;;;5051911;28;19930;-90
2022/11/19 13:18:11;;;;;;;;;;;17.60;52.40;;;;;;5051433;28;19909;-91
2022/11/19 13:21:00;;;;;;;;;;;17.50;52.30;;;;;;5048236;28;19912;-91
2022/11/19 13:23:36;;;;;;;;;;;17.50;52.20;;;;;;5031616;28;20205;-92
2022/11/19 13:26:22;;;;;;;;;;;17.50;52.10;;;;;;5051095;28;20467;-91
2022/11/19 13:28:51;;;;;;;;;;;17.50;52.20;;;;;;5051411;28;19917;-91
2022/11/19 13:31:27;;;;;;;;;;;17.50;52.20;;;;;;5069175;28;19912;-91
2022/11/19 13:33:58;;;;;;;;;;;17.50;52.10;;;;;;5051178;28;19919;-92
2022/11/19 13:36:35;;;;;;;;;;;17.50;52.10;;;;;;5050620;28;19947;-91
2022/11/19 13:39:09;;;;;;;;;;;17.60;52.20;;;;;;5026339;28;20009;-91
2022/11/19 13:44:37;;;;;;;;;;;17.60;52.20;;;;;;5052839;28;19912;-91
2022/11/19 13:44:42;;;;;;;;;;;17.70;52.10;;;;;;5051757;28;20003;-91
2022/11/19 13:47:27;;;;;;;;;;;17.70;52.10;;;;;;5052050;28;19947;-91
2022/11/19 13:49:56;;;;;;;;;;;17.70;52.00;;;;;;5031590;28;19947;-91
2022/11/19 13:52:42;;;;;;;;;;;17.70;51.90;;;;;;5053421;28;20025;-91
2022/11/19 13:55:40;;;;;;;;;;;17.70;51.90;;;;;;5051483;28;20190;-91
2022/11/19 13:58:12;;;;;;;;;;;17.70;51.90;;;;;;5020417;28;20197;-91
2022/11/19 14:00:44;;;;;;;;;;;17.80;51.90;;;;;;5051049;28;19916;-91
2022/11/19 14:03:18;;;;;;;;;;;17.80;52.00;;;;;;5044285;28;19935;-91
2022/11/19 14:05:43;;;;;;;;;;;17.80;52.10;;;;;;5051210;28;20003;-91
2022/11/19 14:08:28;;;;;;;;;;;17.80;52.10;;;;;;5051893;28;19999;-91
2022/11/19 14:11:06;;;;;;;;;;;17.90;52.20;;;;;;5052498;28;19909;-91
2022/11/19 14:13:57;;;;;;;;;;;17.90;52.40;;;;;;5069853;28;19913;-91
2022/11/19 14:27:32;;;;;;;;;;;18.00;52.80;;;;;;5072955;28;19923;-91
2022/11/19 14:30:05;;;;;;;;;;;17.90;52.80;;;;;;5052853;28;19923;-91
2022/11/19 14:32:47;;;;;;;;;;;17.90;52.80;;;;;;5056712;28;19920;-92
2022/11/19 14:35:25;;;;;;;;;;;17.90;52.80;;;;;;5058346;28;19909;-91
2022/11/19 14:37:52;;;;;;;;;;;18.00;52.80;;;;;;5055816;28;19920;-91
2022/11/19 14:40:29;;;;;;;;;;;17.90;52.80;;;;;;5055146;28;20259;-91
2022/11/19 14:46:03;;;;;;;;;;;17.80;52.60;;;;;;5072531;28;19996;-92
2022/11/19 14:48:38;;;;;;;;;;;17.80;52.50;;;;;;5071251;28;19916;-91
2022/11/19 14:51:03;;;;;;;;;;;17.80;52.50;;;;;;5056621;28;19997;-91
2022/11/19 14:53:38;;;;;;;;;;;17.80;52.50;;;;;;5056750;28;20317;-91
2022/11/19 14:56:15;;;;;;;;;;;17.80;52.60;;;;;;5055549;28;19916;-92
2022/11/19 14:58:53;;;;;;;;;;;17.70;52.50;;;;;;5072748;28;20183;-91
2022/11/19 15:01:22;;;;;;;;;;;17.70;52.60;;;;;;5056339;28;19963;-91
2022/11/19 15:03:58;;;;;;;;;;;17.70;52.50;;;;;;5038459;28;19973;-91
2022/11/19 15:06:27;;;;;;;;;;;17.70;52.50;;;;;;5049917;28;20360;-91
2022/11/19 15:08:57;;;;;;;;;;;17.70;52.50;;;;;;5055302;28;19908;-92
2022/11/19 15:11:26;;;;;;;;;;;17.70;52.60;;;;;;5073022;28;19974;-92
2022/11/19 15:14:12;;;;;;;;;;;17.70;52.70;;;;;;5055636;28;19909;-91
2022/11/19 15:16:38;;;;;;;;;;;17.70;52.70;;;;;;5046856;28;19916;-91